sensor_id;sensor_type;location;lat;lon;timestamp;P1;durP1;ratioP1;P2;durP2;ratioP2
71771;SDS011;59606;52.138;5.424;2022-09-13T00:00:59;9.10;;;4.25;;
71771;SDS011;59606;52.138;5.424;2022-09-13T00:03:26;8.57;;;4.38;;
71771;SDS011;59606;52.138;5.424;2022-09-13T00:05:53;8.73;;;4.73;;
71771;SDS011;59606;52.138;5.424;2022-09-13T00:08:20;8.68;;;4.95;;
71771;SDS011;59606;52.138;5.424;2022-09-13T00:10:46;7.07;;;4.55;;
71771;SDS011;59606;52.138;5.424;2022-09-13T00:13:13;8.88;;;5.03;;
71771;SDS011;59606;52.138;5.424;2022-09-13T00:15:48;11.52;;;4.70;;
71771;SDS011;59606;52.138;5.424;2022-09-13T00:18:16;10.60;;;5.03;;
71771;SDS011;59606;52.138;5.424;2022-09-13T00:20:43;9.07;;;4.70;;
71771;SDS011;59606;52.138;5.424;2022-09-13T00:23:10;9.60;;;4.95;;
71771;SDS011;59606;52.138;5.424;2022-09-13T00:25:38;8.82;;;5.80;;
71771;SDS011;59606;52.138;5.424;2022-09-13T00:28:05;10.68;;;5.05;;
71771;SDS011;59606;52.138;5.424;2022-09-13T00:30:31;9.10;;;5.10;;
71771;SDS011;59606;52.138;5.424;2022-09-13T00:32:58;9.30;;;5.22;;
71771;SDS011;59606;52.138;5.424;2022-09-13T00:35:25;8.63;;;5.05;;
71771;SDS011;59606;52.138;5.424;2022-09-13T00:37:51;10.00;;;5.20;;
71771;SDS011;59606;52.138;5.424;2022-09-13T00:40:19;10.90;;;4.75;;
71771;SDS011;59606;52.138;5.424;2022-09-13T00:42:45;9.27;;;5.33;;
71771;SDS011;59606;52.138;5.424;2022-09-13T00:45:16;12.70;;;5.07;;
71771;SDS011;59606;52.138;5.424;2022-09-13T00:47:54;7.80;;;4.45;;
71771;SDS011;59606;52.138;5.424;2022-09-13T00:50:29;10.70;;;4.50;;
71771;SDS011;59606;52.138;5.424;2022-09-13T00:53:06;7.15;;;4.72;;
71771;SDS011;59606;52.138;5.424;2022-09-13T00:55:47;8.37;;;4.93;;
71771;SDS011;59606;52.138;5.424;2022-09-13T00:58:20;10.82;;;5.05;;
71771;SDS011;59606;52.138;5.424;2022-09-13T01:00:49;9.68;;;5.38;;
71771;SDS011;59606;52.138;5.424;2022-09-13T01:03:17;8.13;;;5.25;;
71771;SDS011;59606;52.138;5.424;2022-09-13T01:05:47;10.20;;;4.75;;
71771;SDS011;59606;52.138;5.424;2022-09-13T01:08:20;9.83;;;5.10;;
71771;SDS011;59606;52.138;5.424;2022-09-13T01:10:50;8.23;;;4.32;;
71771;SDS011;59606;52.138;5.424;2022-09-13T01:13:21;7.68;;;4.82;;
71771;SDS011;59606;52.138;5.424;2022-09-13T01:15:51;9.20;;;5.65;;
71771;SDS011;59606;52.138;5.424;2022-09-13T01:18:18;9.23;;;5.00;;
71771;SDS011;59606;52.138;5.424;2022-09-13T01:29:20;10.48;;;5.57;;
71771;SDS011;59606;52.138;5.424;2022-09-13T01:37:51;11.00;;;5.88;;
71771;SDS011;59606;52.138;5.424;2022-09-13T01:40:49;9.75;;;5.68;;
71771;SDS011;59606;52.138;5.424;2022-09-13T01:46:08;12.30;;;5.53;;
71771;SDS011;59606;52.138;5.424;2022-09-13T01:56:42;10.85;;;6.80;;
71771;SDS011;59606;52.138;5.424;2022-09-13T01:59:17;10.57;;;6.13;;
71771;SDS011;59606;52.138;5.424;2022-09-13T02:01:57;9.77;;;5.73;;
71771;SDS011;59606;52.138;5.424;2022-09-13T02:04:28;9.57;;;5.50;;
71771;SDS011;59606;52.138;5.424;2022-09-13T02:07:04;13.32;;;6.22;;
71771;SDS011;59606;52.138;5.424;2022-09-13T02:09:37;13.45;;;6.18;;
71771;SDS011;59606;52.138;5.424;2022-09-13T02:12:26;9.93;;;5.47;;
71771;SDS011;59606;52.138;5.424;2022-09-13T02:15:03;10.17;;;4.97;;
71771;SDS011;59606;52.138;5.424;2022-09-13T02:17:36;9.50;;;5.38;;
71771;SDS011;59606;52.138;5.424;2022-09-13T02:20:08;10.07;;;5.57;;
71771;SDS011;59606;52.138;5.424;2022-09-13T02:22:43;10.30;;;5.70;;
71771;SDS011;59606;52.138;5.424;2022-09-13T02:25:15;12.25;;;6.38;;
71771;SDS011;59606;52.138;5.424;2022-09-13T02:27:47;9.93;;;5.40;;
71771;SDS011;59606;52.138;5.424;2022-09-13T02:30:16;9.50;;;6.03;;
71771;SDS011;59606;52.138;5.424;2022-09-13T02:32:48;10.80;;;6.15;;
71771;SDS011;59606;52.138;5.424;2022-09-13T02:35:30;11.80;;;5.63;;
71771;SDS011;59606;52.138;5.424;2022-09-13T02:38:08;9.82;;;6.28;;
71771;SDS011;59606;52.138;5.424;2022-09-13T02:40:42;12.10;;;6.17;;
71771;SDS011;59606;52.138;5.424;2022-09-13T02:43:23;9.43;;;5.38;;
71771;SDS011;59606;52.138;5.424;2022-09-13T02:46:05;10.10;;;5.85;;
71771;SDS011;59606;52.138;5.424;2022-09-13T02:48:45;11.15;;;6.40;;
71771;SDS011;59606;52.138;5.424;2022-09-13T02:51:22;11.65;;;6.57;;
71771;SDS011;59606;52.138;5.424;2022-09-13T02:56:41;10.13;;;6.07;;
71771;SDS011;59606;52.138;5.424;2022-09-13T02:59:20;12.73;;;6.10;;
71771;SDS011;59606;52.138;5.424;2022-09-13T03:01:54;11.18;;;5.60;;
71771;SDS011;59606;52.138;5.424;2022-09-13T03:04:26;12.55;;;6.05;;
71771;SDS011;59606;52.138;5.424;2022-09-13T03:06:53;13.90;;;5.47;;
71771;SDS011;59606;52.138;5.424;2022-09-13T03:09:20;12.13;;;6.40;;
71771;SDS011;59606;52.138;5.424;2022-09-13T03:15:01;9.32;;;5.82;;
71771;SDS011;59606;52.138;5.424;2022-09-13T03:26:11;11.85;;;5.70;;
71771;SDS011;59606;52.138;5.424;2022-09-13T03:34:33;11.97;;;6.77;;
71771;SDS011;59606;52.138;5.424;2022-09-13T03:37:13;16.52;;;5.60;;
71771;SDS011;59606;52.138;5.424;2022-09-13T03:39:51;9.90;;;6.38;;
71771;SDS011;59606;52.138;5.424;2022-09-13T03:45:10;10.02;;;6.50;;
71771;SDS011;59606;52.138;5.424;2022-09-13T03:47:39;12.20;;;5.97;;
71771;SDS011;59606;52.138;5.424;2022-09-13T03:50:10;11.45;;;6.82;;
71771;SDS011;59606;52.138;5.424;2022-09-13T03:52:43;10.48;;;5.80;;
71771;SDS011;59606;52.138;5.424;2022-09-13T03:55:11;12.30;;;6.65;;
71771;SDS011;59606;52.138;5.424;2022-09-13T03:57:38;12.13;;;6.80;;
71771;SDS011;59606;52.138;5.424;2022-09-13T04:00:04;9.87;;;6.10;;
71771;SDS011;59606;52.138;5.424;2022-09-13T04:02:31;12.18;;;6.63;;
71771;SDS011;59606;52.138;5.424;2022-09-13T04:04:58;10.70;;;6.63;;
71771;SDS011;59606;52.138;5.424;2022-09-13T04:07:24;11.80;;;5.90;;
71771;SDS011;59606;52.138;5.424;2022-09-13T04:09:51;9.15;;;5.47;;
71771;SDS011;59606;52.138;5.424;2022-09-13T04:12:18;10.70;;;6.03;;
71771;SDS011;59606;52.138;5.424;2022-09-13T04:14:44;11.80;;;6.05;;
71771;SDS011;59606;52.138;5.424;2022-09-13T04:17:11;10.30;;;5.85;;
71771;SDS011;59606;52.138;5.424;2022-09-13T04:19:38;13.05;;;6.65;;
71771;SDS011;59606;52.138;5.424;2022-09-13T04:22:05;10.60;;;6.07;;
71771;SDS011;59606;52.138;5.424;2022-09-13T04:24:31;12.00;;;6.10;;
71771;SDS011;59606;52.138;5.424;2022-09-13T04:26:58;8.80;;;5.85;;
71771;SDS011;59606;52.138;5.424;2022-09-13T04:29:26;11.48;;;5.40;;
71771;SDS011;59606;52.138;5.424;2022-09-13T04:31:53;10.02;;;5.90;;
71771;SDS011;59606;52.138;5.424;2022-09-13T04:34:20;8.40;;;5.70;;
71771;SDS011;59606;52.138;5.424;2022-09-13T04:36:48;10.83;;;5.37;;
71771;SDS011;59606;52.138;5.424;2022-09-13T04:39:16;9.55;;;5.93;;
71771;SDS011;59606;52.138;5.424;2022-09-13T04:41:43;12.50;;;6.30;;
71771;SDS011;59606;52.138;5.424;2022-09-13T04:44:13;12.05;;;5.53;;
71771;SDS011;59606;52.138;5.424;2022-09-13T04:46:41;8.98;;;5.78;;
71771;SDS011;59606;52.138;5.424;2022-09-13T04:49:08;10.03;;;5.93;;
71771;SDS011;59606;52.138;5.424;2022-09-13T04:51:36;9.90;;;6.28;;
71771;SDS011;59606;52.138;5.424;2022-09-13T04:54:02;13.57;;;6.68;;
71771;SDS011;59606;52.138;5.424;2022-09-13T04:56:30;11.43;;;6.78;;
71771;SDS011;59606;52.138;5.424;2022-09-13T04:58:57;11.85;;;6.85;;
71771;SDS011;59606;52.138;5.424;2022-09-13T05:01:23;12.43;;;7.17;;
71771;SDS011;59606;52.138;5.424;2022-09-13T05:03:53;12.10;;;7.03;;
71771;SDS011;59606;52.138;5.424;2022-09-13T05:06:20;13.50;;;7.30;;
71771;SDS011;59606;52.138;5.424;2022-09-13T05:08:50;12.52;;;6.97;;
71771;SDS011;59606;52.138;5.424;2022-09-13T05:11:20;10.70;;;6.30;;
71771;SDS011;59606;52.138;5.424;2022-09-13T05:13:49;13.10;;;7.20;;
71771;SDS011;59606;52.138;5.424;2022-09-13T05:16:18;11.70;;;7.30;;
71771;SDS011;59606;52.138;5.424;2022-09-13T05:18:44;14.15;;;7.25;;
71771;SDS011;59606;52.138;5.424;2022-09-13T05:21:11;10.35;;;6.55;;
71771;SDS011;59606;52.138;5.424;2022-09-13T05:23:38;11.13;;;6.82;;
71771;SDS011;59606;52.138;5.424;2022-09-13T05:26:05;14.83;;;6.83;;
71771;SDS011;59606;52.138;5.424;2022-09-13T05:28:33;16.48;;;7.57;;
71771;SDS011;59606;52.138;5.424;2022-09-13T05:31:02;13.38;;;7.78;;
71771;SDS011;59606;52.138;5.424;2022-09-13T05:33:32;11.50;;;6.88;;
71771;SDS011;59606;52.138;5.424;2022-09-13T05:36:00;13.85;;;7.90;;
71771;SDS011;59606;52.138;5.424;2022-09-13T05:38:27;12.07;;;7.03;;
71771;SDS011;59606;52.138;5.424;2022-09-13T05:40:54;15.70;;;8.05;;
71771;SDS011;59606;52.138;5.424;2022-09-13T05:43:25;16.63;;;8.77;;
71771;SDS011;59606;52.138;5.424;2022-09-13T05:46:02;17.80;;;9.75;;
71771;SDS011;59606;52.138;5.424;2022-09-13T05:48:31;18.15;;;9.27;;
71771;SDS011;59606;52.138;5.424;2022-09-13T05:53:33;20.27;;;11.15;;
71771;SDS011;59606;52.138;5.424;2022-09-13T05:56:00;17.95;;;9.80;;
71771;SDS011;59606;52.138;5.424;2022-09-13T05:58:26;18.05;;;10.27;;
71771;SDS011;59606;52.138;5.424;2022-09-13T06:00:53;20.05;;;10.52;;
71771;SDS011;59606;52.138;5.424;2022-09-13T06:03:23;22.10;;;12.10;;
71771;SDS011;59606;52.138;5.424;2022-09-13T06:05:53;27.27;;;12.23;;
71771;SDS011;59606;52.138;5.424;2022-09-13T06:08:20;22.08;;;11.55;;
71771;SDS011;59606;52.138;5.424;2022-09-13T06:11:01;28.58;;;11.90;;
71771;SDS011;59606;52.138;5.424;2022-09-13T06:13:29;25.58;;;12.57;;
71771;SDS011;59606;52.138;5.424;2022-09-13T06:15:56;23.53;;;11.07;;
71771;SDS011;59606;52.138;5.424;2022-09-13T06:18:24;23.85;;;13.10;;
71771;SDS011;59606;52.138;5.424;2022-09-13T06:21:00;30.67;;;12.32;;
71771;SDS011;59606;52.138;5.424;2022-09-13T06:23:34;26.48;;;12.75;;
71771;SDS011;59606;52.138;5.424;2022-09-13T06:26:04;23.50;;;13.23;;
71771;SDS011;59606;52.138;5.424;2022-09-13T06:28:33;22.87;;;12.60;;
71771;SDS011;59606;52.138;5.424;2022-09-13T06:31:07;23.05;;;13.13;;
71771;SDS011;59606;52.138;5.424;2022-09-13T06:33:35;30.90;;;13.98;;
71771;SDS011;59606;52.138;5.424;2022-09-13T06:36:04;35.92;;;14.32;;
71771;SDS011;59606;52.138;5.424;2022-09-13T06:38:35;31.02;;;13.10;;
71771;SDS011;59606;52.138;5.424;2022-09-13T06:41:02;29.77;;;14.37;;
71771;SDS011;59606;52.138;5.424;2022-09-13T06:43:37;30.33;;;15.23;;
71771;SDS011;59606;52.138;5.424;2022-09-13T06:46:05;28.77;;;14.68;;
71771;SDS011;59606;52.138;5.424;2022-09-13T06:48:34;31.33;;;15.50;;
71771;SDS011;59606;52.138;5.424;2022-09-13T06:51:03;29.45;;;15.88;;
71771;SDS011;59606;52.138;5.424;2022-09-13T06:53:31;35.40;;;16.70;;
71771;SDS011;59606;52.138;5.424;2022-09-13T06:55:59;28.38;;;15.23;;
71771;SDS011;59606;52.138;5.424;2022-09-13T06:58:37;28.75;;;15.82;;
71771;SDS011;59606;52.138;5.424;2022-09-13T07:03:39;31.17;;;16.17;;
71771;SDS011;59606;52.138;5.424;2022-09-13T07:06:08;29.37;;;14.93;;
71771;SDS011;59606;52.138;5.424;2022-09-13T07:08:39;30.58;;;15.45;;
71771;SDS011;59606;52.138;5.424;2022-09-13T07:11:08;28.90;;;14.32;;
71771;SDS011;59606;52.138;5.424;2022-09-13T07:13:36;29.20;;;14.98;;
71771;SDS011;59606;52.138;5.424;2022-09-13T07:16:04;29.73;;;15.50;;
71771;SDS011;59606;52.138;5.424;2022-09-13T07:18:33;27.27;;;13.77;;
71771;SDS011;59606;52.138;5.424;2022-09-13T07:21:00;27.58;;;14.15;;
71771;SDS011;59606;52.138;5.424;2022-09-13T07:23:29;31.85;;;14.93;;
71771;SDS011;59606;52.138;5.424;2022-09-13T07:25:57;25.20;;;14.00;;
71771;SDS011;59606;52.138;5.424;2022-09-13T07:28:48;22.45;;;12.40;;
71771;SDS011;59606;52.138;5.424;2022-09-13T07:31:21;24.60;;;13.50;;
71771;SDS011;59606;52.138;5.424;2022-09-13T07:33:53;23.17;;;12.90;;
71771;SDS011;59606;52.138;5.424;2022-09-13T07:36:21;26.30;;;13.63;;
71771;SDS011;59606;52.138;5.424;2022-09-13T07:38:49;23.08;;;12.32;;
71771;SDS011;59606;52.138;5.424;2022-09-13T07:41:16;19.13;;;10.80;;
71771;SDS011;59606;52.138;5.424;2022-09-13T07:43:45;23.77;;;11.37;;
71771;SDS011;59606;52.138;5.424;2022-09-13T07:46:13;16.42;;;9.77;;
71771;SDS011;59606;52.138;5.424;2022-09-13T07:48:44;19.95;;;9.35;;
71771;SDS011;59606;52.138;5.424;2022-09-13T07:51:13;18.95;;;10.57;;
71771;SDS011;59606;52.138;5.424;2022-09-13T07:53:48;16.20;;;9.15;;
71771;SDS011;59606;52.138;5.424;2022-09-13T07:56:23;17.20;;;9.13;;
71771;SDS011;59606;52.138;5.424;2022-09-13T07:58:51;14.18;;;8.63;;
71771;SDS011;59606;52.138;5.424;2022-09-13T08:01:23;14.98;;;7.78;;
71771;SDS011;59606;52.138;5.424;2022-09-13T08:03:55;14.50;;;8.55;;
71771;SDS011;59606;52.138;5.424;2022-09-13T08:06:24;16.98;;;8.88;;
71771;SDS011;59606;52.138;5.424;2022-09-13T08:08:52;13.73;;;7.47;;
71771;SDS011;59606;52.138;5.424;2022-09-13T08:11:20;16.48;;;7.50;;
71771;SDS011;59606;52.138;5.424;2022-09-13T08:13:49;15.38;;;8.45;;
71771;SDS011;59606;52.138;5.424;2022-09-13T08:16:18;12.18;;;7.00;;
71771;SDS011;59606;52.138;5.424;2022-09-13T08:18:47;15.45;;;6.97;;
71771;SDS011;59606;52.138;5.424;2022-09-13T08:21:18;14.07;;;7.53;;
71771;SDS011;59606;52.138;5.424;2022-09-13T08:23:45;15.80;;;7.03;;
71771;SDS011;59606;52.138;5.424;2022-09-13T08:26:12;15.57;;;7.10;;
71771;SDS011;59606;52.138;5.424;2022-09-13T08:28:39;11.75;;;6.20;;
71771;SDS011;59606;52.138;5.424;2022-09-13T08:31:13;12.40;;;5.75;;
71771;SDS011;59606;52.138;5.424;2022-09-13T08:33:43;10.77;;;4.90;;
71771;SDS011;59606;52.138;5.424;2022-09-13T08:36:12;9.23;;;4.72;;
71771;SDS011;59606;52.138;5.424;2022-09-13T08:38:43;6.65;;;3.60;;
71771;SDS011;59606;52.138;5.424;2022-09-13T08:43:58;8.60;;;3.70;;
71771;SDS011;59606;52.138;5.424;2022-09-13T08:46:35;6.20;;;2.77;;
71771;SDS011;59606;52.138;5.424;2022-09-13T08:49:18;5.93;;;2.45;;
71771;SDS011;59606;52.138;5.424;2022-09-13T08:51:50;8.80;;;3.30;;
71771;SDS011;59606;52.138;5.424;2022-09-13T08:54:19;7.70;;;2.83;;
71771;SDS011;59606;52.138;5.424;2022-09-13T09:05:44;4.97;;;2.00;;
71771;SDS011;59606;52.138;5.424;2022-09-13T09:10:57;9.57;;;1.70;;
71771;SDS011;59606;52.138;5.424;2022-09-13T09:13:28;3.50;;;1.50;;
71771;SDS011;59606;52.138;5.424;2022-09-13T09:16:01;2.55;;;1.52;;
71771;SDS011;59606;52.138;5.424;2022-09-13T09:18:56;4.28;;;1.20;;
71771;SDS011;59606;52.138;5.424;2022-09-13T09:21:29;4.95;;;1.25;;
71771;SDS011;59606;52.138;5.424;2022-09-13T09:23:58;9.55;;;1.50;;
71771;SDS011;59606;52.138;5.424;2022-09-13T09:26:29;4.07;;;1.10;;
71771;SDS011;59606;52.138;5.424;2022-09-13T09:32:11;4.80;;;1.27;;
71771;SDS011;59606;52.138;5.424;2022-09-13T09:37:23;4.10;;;1.33;;
71771;SDS011;59606;52.138;5.424;2022-09-13T09:39:51;3.13;;;0.93;;
71771;SDS011;59606;52.138;5.424;2022-09-13T09:42:22;1.55;;;0.70;;
71771;SDS011;59606;52.138;5.424;2022-09-13T09:44:52;2.85;;;0.90;;
71771;SDS011;59606;52.138;5.424;2022-09-13T09:47:27;3.38;;;0.90;;
71771;SDS011;59606;52.138;5.424;2022-09-13T09:50:00;2.90;;;1.10;;
71771;SDS011;59606;52.138;5.424;2022-09-13T09:52:39;2.47;;;0.60;;
71771;SDS011;59606;52.138;5.424;2022-09-13T09:55:29;5.05;;;1.10;;
71771;SDS011;59606;52.138;5.424;2022-09-13T10:00:27;3.22;;;0.90;;
71771;SDS011;59606;52.138;5.424;2022-09-13T10:02:56;1.63;;;0.80;;
71771;SDS011;59606;52.138;5.424;2022-09-13T10:05:24;2.97;;;1.13;;
71771;SDS011;59606;52.138;5.424;2022-09-13T10:07:53;2.60;;;0.75;;
71771;SDS011;59606;52.138;5.424;2022-09-13T10:10:34;4.68;;;0.70;;
71771;SDS011;59606;52.138;5.424;2022-09-13T10:13:18;2.65;;;0.80;;
71771;SDS011;59606;52.138;5.424;2022-09-13T10:15:53;3.35;;;0.88;;
71771;SDS011;59606;52.138;5.424;2022-09-13T10:18:21;3.17;;;0.70;;
71771;SDS011;59606;52.138;5.424;2022-09-13T10:23:43;3.10;;;0.85;;
71771;SDS011;59606;52.138;5.424;2022-09-13T10:26:13;3.08;;;0.93;;
71771;SDS011;59606;52.138;5.424;2022-09-13T10:31:20;6.07;;;1.17;;
71771;SDS011;59606;52.138;5.424;2022-09-13T10:34:02;4.38;;;0.80;;
71771;SDS011;59606;52.138;5.424;2022-09-13T10:36:35;2.83;;;1.10;;
71771;SDS011;59606;52.138;5.424;2022-09-13T10:39:19;4.25;;;1.20;;
71771;SDS011;59606;52.138;5.424;2022-09-13T10:47:16;2.33;;;1.17;;
71771;SDS011;59606;52.138;5.424;2022-09-13T10:49:52;2.88;;;1.13;;
71771;SDS011;59606;52.138;5.424;2022-09-13T10:52:30;3.20;;;1.15;;
71771;SDS011;59606;52.138;5.424;2022-09-13T10:55:44;5.60;;;1.13;;
71771;SDS011;59606;52.138;5.424;2022-09-13T10:58:33;5.03;;;1.00;;
71771;SDS011;59606;52.138;5.424;2022-09-13T11:03:34;2.28;;;0.70;;
71771;SDS011;59606;52.138;5.424;2022-09-13T11:17:24;3.28;;;1.00;;
71771;SDS011;59606;52.138;5.424;2022-09-13T11:20:22;3.78;;;1.10;;
71771;SDS011;59606;52.138;5.424;2022-09-13T11:34:28;3.20;;;1.00;;
71771;SDS011;59606;52.138;5.424;2022-09-13T11:42:32;5.15;;;1.20;;
71771;SDS011;59606;52.138;5.424;2022-09-13T11:53:45;4.70;;;1.00;;
71771;SDS011;59606;52.138;5.424;2022-09-13T11:56:32;4.28;;;1.27;;
71771;SDS011;59606;52.138;5.424;2022-09-13T11:59:08;2.40;;;0.95;;
71771;SDS011;59606;52.138;5.424;2022-09-13T12:01:50;3.05;;;1.30;;
71771;SDS011;59606;52.138;5.424;2022-09-13T12:04:24;3.72;;;0.80;;
71771;SDS011;59606;52.138;5.424;2022-09-13T12:07:00;5.13;;;0.90;;
71771;SDS011;59606;52.138;5.424;2022-09-13T12:09:36;2.72;;;0.73;;
71771;SDS011;59606;52.138;5.424;2022-09-13T12:12:09;4.72;;;0.85;;
71771;SDS011;59606;52.138;5.424;2022-09-13T12:14:42;2.47;;;0.90;;
71771;SDS011;59606;52.138;5.424;2022-09-13T12:17:22;3.22;;;1.17;;
71771;SDS011;59606;52.138;5.424;2022-09-13T12:19:57;2.37;;;0.90;;
71771;SDS011;59606;52.138;5.424;2022-09-13T12:22:28;3.38;;;0.70;;
71771;SDS011;59606;52.138;5.424;2022-09-13T12:24:58;3.40;;;0.95;;
71771;SDS011;59606;52.138;5.424;2022-09-13T12:30:27;6.65;;;0.90;;
71771;SDS011;59606;52.138;5.424;2022-09-13T12:33:04;6.17;;;1.00;;
71771;SDS011;59606;52.138;5.424;2022-09-13T12:35:41;5.05;;;0.95;;
71771;SDS011;59606;52.138;5.424;2022-09-13T12:38:25;2.85;;;0.80;;
71771;SDS011;59606;52.138;5.424;2022-09-13T12:49:11;1.98;;;0.80;;
71771;SDS011;59606;52.138;5.424;2022-09-13T13:00:23;1.63;;;0.70;;
71771;SDS011;59606;52.138;5.424;2022-09-13T13:03:01;2.80;;;0.70;;
71771;SDS011;59606;52.138;5.424;2022-09-13T13:05:55;3.75;;;1.00;;
71771;SDS011;59606;52.138;5.424;2022-09-13T13:08:34;4.40;;;1.13;;
71771;SDS011;59606;52.138;5.424;2022-09-13T13:13:32;3.27;;;0.80;;
71771;SDS011;59606;52.138;5.424;2022-09-13T13:18:48;3.88;;;0.80;;
71771;SDS011;59606;52.138;5.424;2022-09-13T13:24:36;4.10;;;0.80;;
71771;SDS011;59606;52.138;5.424;2022-09-13T13:26:56;4.07;;;0.67;;
71771;SDS011;59606;52.138;5.424;2022-09-13T13:29:30;3.92;;;0.70;;
71771;SDS011;59606;52.138;5.424;2022-09-13T13:34:39;9.23;;;0.95;;
71771;SDS011;59606;52.138;5.424;2022-09-13T13:39:46;5.60;;;0.60;;
71771;SDS011;59606;52.138;5.424;2022-09-13T13:42:26;3.70;;;0.95;;
71771;SDS011;59606;52.138;5.424;2022-09-13T13:44:56;4.47;;;0.68;;
71771;SDS011;59606;52.138;5.424;2022-09-13T13:58:03;2.45;;;0.50;;
71771;SDS011;59606;52.138;5.424;2022-09-13T14:00:43;2.97;;;0.80;;
71771;SDS011;59606;52.138;5.424;2022-09-13T14:06:04;2.10;;;0.57;;
71771;SDS011;59606;52.138;5.424;2022-09-13T14:20:16;3.70;;;0.50;;
71771;SDS011;59606;52.138;5.424;2022-09-13T14:22:44;3.75;;;0.50;;
71771;SDS011;59606;52.138;5.424;2022-09-13T14:25:21;4.32;;;0.80;;
71771;SDS011;59606;52.138;5.424;2022-09-13T14:27:51;4.43;;;0.80;;
71771;SDS011;59606;52.138;5.424;2022-09-13T14:30:26;2.95;;;0.70;;
71771;SDS011;59606;52.138;5.424;2022-09-13T14:33:00;2.60;;;0.83;;
71771;SDS011;59606;52.138;5.424;2022-09-13T14:35:28;4.18;;;0.98;;
71771;SDS011;59606;52.138;5.424;2022-09-13T14:38:21;2.30;;;0.60;;
71771;SDS011;59606;52.138;5.424;2022-09-13T14:40:59;2.33;;;0.50;;
71771;SDS011;59606;52.138;5.424;2022-09-13T14:43:28;3.22;;;0.95;;
71771;SDS011;59606;52.138;5.424;2022-09-13T14:46:01;3.63;;;0.47;;
71771;SDS011;59606;52.138;5.424;2022-09-13T14:51:25;5.05;;;1.02;;
71771;SDS011;59606;52.138;5.424;2022-09-13T14:54:35;5.13;;;0.93;;
71771;SDS011;59606;52.138;5.424;2022-09-13T14:57:02;4.53;;;0.73;;
71771;SDS011;59606;52.138;5.424;2022-09-13T14:59:41;4.40;;;0.40;;
71771;SDS011;59606;52.138;5.424;2022-09-13T15:04:49;3.72;;;0.70;;
71771;SDS011;59606;52.138;5.424;2022-09-13T15:07:37;3.70;;;1.05;;
71771;SDS011;59606;52.138;5.424;2022-09-13T15:12:48;2.73;;;0.50;;
71771;SDS011;59606;52.138;5.424;2022-09-13T15:15:39;4.20;;;0.57;;
71771;SDS011;59606;52.138;5.424;2022-09-13T15:20:44;3.13;;;0.50;;
71771;SDS011;59606;52.138;5.424;2022-09-13T15:23:15;3.80;;;0.70;;
71771;SDS011;59606;52.138;5.424;2022-09-13T15:25:51;4.00;;;0.70;;
71771;SDS011;59606;52.138;5.424;2022-09-13T15:28:20;2.22;;;0.65;;
71771;SDS011;59606;52.138;5.424;2022-09-13T15:30:49;3.35;;;0.70;;
71771;SDS011;59606;52.138;5.424;2022-09-13T15:33:24;2.83;;;0.50;;
71771;SDS011;59606;52.138;5.424;2022-09-13T15:38:58;3.22;;;0.40;;
71771;SDS011;59606;52.138;5.424;2022-09-13T15:41:39;6.55;;;0.70;;
71771;SDS011;59606;52.138;5.424;2022-09-13T15:44:07;7.10;;;0.40;;
71771;SDS011;59606;52.138;5.424;2022-09-13T15:46:37;5.13;;;0.60;;
71771;SDS011;59606;52.138;5.424;2022-09-13T15:49:14;5.03;;;0.63;;
71771;SDS011;59606;52.138;5.424;2022-09-13T15:51:43;3.45;;;1.10;;
71771;SDS011;59606;52.138;5.424;2022-09-13T15:54:13;3.13;;;0.40;;
71771;SDS011;59606;52.138;5.424;2022-09-13T15:56:43;4.70;;;0.50;;
71771;SDS011;59606;52.138;5.424;2022-09-13T15:59:15;2.50;;;0.33;;
71771;SDS011;59606;52.138;5.424;2022-09-13T16:01:43;1.92;;;0.50;;
71771;SDS011;59606;52.138;5.424;2022-09-13T16:04:11;2.03;;;0.50;;
71771;SDS011;59606;52.138;5.424;2022-09-13T16:06:37;3.17;;;0.45;;
71771;SDS011;59606;52.138;5.424;2022-09-13T16:09:10;8.23;;;0.50;;
71771;SDS011;59606;52.138;5.424;2022-09-13T16:11:45;5.73;;;0.60;;
71771;SDS011;59606;52.138;5.424;2022-09-13T16:14:13;4.72;;;0.43;;
71771;SDS011;59606;52.138;5.424;2022-09-13T16:16:40;2.47;;;0.98;;
71771;SDS011;59606;52.138;5.424;2022-09-13T16:19:20;2.90;;;0.40;;
71771;SDS011;59606;52.138;5.424;2022-09-13T16:21:47;1.30;;;0.90;;
71771;SDS011;59606;52.138;5.424;2022-09-13T16:24:14;5.80;;;0.70;;
71771;SDS011;59606;52.138;5.424;2022-09-13T16:26:41;3.60;;;0.52;;
71771;SDS011;59606;52.138;5.424;2022-09-13T16:29:11;5.05;;;0.50;;
71771;SDS011;59606;52.138;5.424;2022-09-13T16:31:38;3.20;;;0.60;;
71771;SDS011;59606;52.138;5.424;2022-09-13T16:34:05;4.88;;;0.57;;
71771;SDS011;59606;52.138;5.424;2022-09-13T16:36:32;2.77;;;0.50;;
71771;SDS011;59606;52.138;5.424;2022-09-13T16:38:59;4.45;;;0.77;;
71771;SDS011;59606;52.138;5.424;2022-09-13T16:41:26;1.83;;;0.65;;
71771;SDS011;59606;52.138;5.424;2022-09-13T16:43:53;6.47;;;0.50;;
71771;SDS011;59606;52.138;5.424;2022-09-13T16:46:20;2.78;;;0.40;;
71771;SDS011;59606;52.138;5.424;2022-09-13T16:48:53;5.40;;;0.97;;
71771;SDS011;59606;52.138;5.424;2022-09-13T16:51:21;3.70;;;0.50;;
71771;SDS011;59606;52.138;5.424;2022-09-13T16:53:49;1.40;;;0.50;;
71771;SDS011;59606;52.138;5.424;2022-09-13T16:56:18;5.95;;;0.80;;
71771;SDS011;59606;52.138;5.424;2022-09-13T16:58:46;5.88;;;0.85;;
71771;SDS011;59606;52.138;5.424;2022-09-13T17:01:14;3.60;;;0.50;;
71771;SDS011;59606;52.138;5.424;2022-09-13T17:03:43;4.53;;;0.60;;
71771;SDS011;59606;52.138;5.424;2022-09-13T17:06:11;7.72;;;0.85;;
71771;SDS011;59606;52.138;5.424;2022-09-13T17:08:40;3.80;;;0.52;;
71771;SDS011;59606;52.138;5.424;2022-09-13T17:11:09;3.42;;;0.75;;
71771;SDS011;59606;52.138;5.424;2022-09-13T17:13:38;3.57;;;0.57;;
71771;SDS011;59606;52.138;5.424;2022-09-13T17:16:06;1.75;;;0.60;;
71771;SDS011;59606;52.138;5.424;2022-09-13T17:18:44;2.95;;;0.30;;
71771;SDS011;59606;52.138;5.424;2022-09-13T17:21:10;4.65;;;0.82;;
71771;SDS011;59606;52.138;5.424;2022-09-13T17:23:37;3.22;;;0.60;;
71771;SDS011;59606;52.138;5.424;2022-09-13T17:26:03;4.73;;;0.87;;
71771;SDS011;59606;52.138;5.424;2022-09-13T17:28:30;2.22;;;0.85;;
71771;SDS011;59606;52.138;5.424;2022-09-13T17:30:56;4.50;;;1.38;;
71771;SDS011;59606;52.138;5.424;2022-09-13T17:33:27;7.38;;;1.00;;
71771;SDS011;59606;52.138;5.424;2022-09-13T17:36:00;4.10;;;0.60;;
71771;SDS011;59606;52.138;5.424;2022-09-13T17:38:28;2.83;;;0.70;;
71771;SDS011;59606;52.138;5.424;2022-09-13T17:40:59;3.10;;;0.55;;
71771;SDS011;59606;52.138;5.424;2022-09-13T17:43:25;3.63;;;0.73;;
71771;SDS011;59606;52.138;5.424;2022-09-13T17:45:52;4.28;;;0.70;;
71771;SDS011;59606;52.138;5.424;2022-09-13T17:48:18;4.45;;;1.00;;
71771;SDS011;59606;52.138;5.424;2022-09-13T17:50:45;5.03;;;0.70;;
71771;SDS011;59606;52.138;5.424;2022-09-13T17:53:11;1.98;;;0.50;;
71771;SDS011;59606;52.138;5.424;2022-09-13T17:55:47;4.75;;;0.70;;
71771;SDS011;59606;52.138;5.424;2022-09-13T17:58:15;5.45;;;0.70;;
71771;SDS011;59606;52.138;5.424;2022-09-13T18:00:41;4.32;;;0.60;;
71771;SDS011;59606;52.138;5.424;2022-09-13T18:03:08;6.20;;;0.73;;
71771;SDS011;59606;52.138;5.424;2022-09-13T18:05:35;6.43;;;1.10;;
71771;SDS011;59606;52.138;5.424;2022-09-13T18:08:02;4.20;;;0.60;;
71771;SDS011;59606;52.138;5.424;2022-09-13T18:10:28;9.20;;;0.93;;
71771;SDS011;59606;52.138;5.424;2022-09-13T18:13:16;4.10;;;1.02;;
71771;SDS011;59606;52.138;5.424;2022-09-13T18:15:43;2.40;;;0.60;;
71771;SDS011;59606;52.138;5.424;2022-09-13T18:18:09;4.63;;;0.75;;
71771;SDS011;59606;52.138;5.424;2022-09-13T18:20:36;5.63;;;0.68;;
71771;SDS011;59606;52.138;5.424;2022-09-13T18:23:05;7.15;;;0.70;;
71771;SDS011;59606;52.138;5.424;2022-09-13T18:25:33;5.18;;;0.60;;